DLH3KV EDDC-EDDC
Flight info
| Callsign | DLH3KV |
|---|---|
| Flight time | 0h 41m |
| Altitude | 4000 |
| Route | DRN |
| Aircraft | A320/M-SDE2E3FGIJ1LORWXYZ/HB1 |
Departure
| Time | 2026-05-08 14:47 |
|---|---|
| Airport | Dresden Airport (EDDC) |
Arrival
| Time | 2026-05-08 15:29 |
|---|---|
| Airport | Dresden Airport (EDDC) |
| Time | Latitude | Longitude | Altitude | Speed | Heading |
|---|---|---|---|---|---|
| 2026-05-08 14:07 | 51.12794 | 13.76700 | 747 ft | 0 kts | 40° |
| 2026-05-08 14:39 | 51.12789 | 13.76694 | 751 ft | 2 kts | 40° |
| 2026-05-08 14:40 | 51.12777 | 13.76677 | 747 ft | 2 kts | 40° |
| 2026-05-08 14:40 | 51.12764 | 13.76660 | 749 ft | 2 kts | 40° |
| 2026-05-08 14:40 | 51.12752 | 13.76642 | 749 ft | 2 kts | 19° |
| 2026-05-08 14:40 | 51.12736 | 13.76635 | 751 ft | 2 kts | 14° |
| 2026-05-08 14:41 | 51.12720 | 13.76629 | 752 ft | 2 kts | 14° |
| 2026-05-08 14:41 | 51.12703 | 13.76626 | 752 ft | 2 kts | 321° |
| 2026-05-08 14:41 | 51.12700 | 13.76629 | 752 ft | 0 kts | 310° |
| 2026-05-08 14:42 | 51.12701 | 13.76627 | 752 ft | 1 kts | 310° |
| 2026-05-08 14:43 | 51.12724 | 13.76584 | 752 ft | 7 kts | 310° |
| 2026-05-08 14:43 | 51.12756 | 13.76524 | 750 ft | 7 kts | 310° |
| 2026-05-08 14:43 | 51.12787 | 13.76465 | 750 ft | 7 kts | 307° |
| 2026-05-08 14:43 | 51.12790 | 13.76394 | 750 ft | 7 kts | 249° |
| 2026-05-08 14:44 | 51.12756 | 13.76339 | 749 ft | 9 kts | 220° |
| 2026-05-08 14:44 | 51.12668 | 13.76222 | 752 ft | 18 kts | 220° |
| 2026-05-08 14:44 | 51.12585 | 13.76109 | 755 ft | 14 kts | 220° |
| 2026-05-08 14:44 | 51.12518 | 13.76018 | 757 ft | 10 kts | 220° |
| 2026-05-08 14:45 | 51.12477 | 13.75961 | 762 ft | 6 kts | 220° |
| 2026-05-08 14:45 | 51.12446 | 13.75919 | 763 ft | 11 kts | 220° |
| 2026-05-08 14:45 | 51.12377 | 13.75819 | 764 ft | 12 kts | 229° |
| 2026-05-08 14:45 | 51.12384 | 13.75708 | 765 ft | 10 kts | 292° |
| 2026-05-08 14:46 | 51.12389 | 13.75687 | 765 ft | 0 kts | 292° |
| 2026-05-08 14:46 | 51.12414 | 13.75602 | 766 ft | 21 kts | 300° |
| 2026-05-08 14:46 | 51.12527 | 13.75553 | 768 ft | 21 kts | 41° |
| 2026-05-08 14:47 | 51.12752 | 13.75862 | 757 ft | 78 kts | 40° |
| 2026-05-08 14:47 | 51.13338 | 13.76671 | 741 ft | 142 kts | 41° |
| 2026-05-08 14:47 | 51.14100 | 13.77866 | 1203 ft | 154 kts | 56° |
| 2026-05-08 14:47 | 51.14533 | 13.79422 | 1960 ft | 156 kts | 75° |
| 2026-05-08 14:48 | 51.14703 | 13.81201 | 2480 ft | 171 kts | 90° |
| 2026-05-08 14:48 | 51.14417 | 13.83201 | 2636 ft | 199 kts | 115° |
| 2026-05-08 14:48 | 51.13588 | 13.85006 | 2557 ft | 204 kts | 137° |
| 2026-05-08 14:48 | 51.12373 | 13.86168 | 2499 ft | 206 kts | 160° |
| 2026-05-08 14:49 | 51.10959 | 13.86494 | 2510 ft | 208 kts | 183° |
| 2026-05-08 14:49 | 51.09569 | 13.85899 | 2511 ft | 208 kts | 207° |
| 2026-05-08 14:49 | 51.08449 | 13.84459 | 2510 ft | 209 kts | 232° |
| 2026-05-08 14:49 | 51.07780 | 13.82430 | 2521 ft | 208 kts | 251° |
| 2026-05-08 14:50 | 51.07196 | 13.80313 | 2507 ft | 209 kts | 241° |
| 2026-05-08 14:50 | 51.06398 | 13.78382 | 2510 ft | 209 kts | 231° |
| 2026-05-08 14:50 | 51.05423 | 13.76706 | 2506 ft | 202 kts | 222° |
| 2026-05-08 14:50 | 51.04404 | 13.75271 | 2521 ft | 187 kts | 221° |
| 2026-05-08 14:51 | 51.03487 | 13.73937 | 2496 ft | 171 kts | 229° |
| 2026-05-08 14:51 | 51.03108 | 13.72300 | 2479 ft | 154 kts | 278° |
| 2026-05-08 14:51 | 51.03529 | 13.70811 | 2508 ft | 147 kts | 309° |
| 2026-05-08 14:51 | 51.04187 | 13.69584 | 2509 ft | 145 kts | 314° |
| 2026-05-08 14:52 | 51.04915 | 13.68474 | 2452 ft | 145 kts | 328° |
| 2026-05-08 14:52 | 51.06824 | 13.68048 | 2212 ft | 141 kts | 20° |
| 2026-05-08 14:52 | 51.07649 | 13.68849 | 2063 ft | 140 kts | 41° |
| 2026-05-08 14:53 | 51.08377 | 13.69850 | 1916 ft | 138 kts | 41° |
| 2026-05-08 14:53 | 51.08857 | 13.70516 | 1754 ft | 139 kts | 42° |
| 2026-05-08 14:53 | 51.09581 | 13.71509 | 1497 ft | 137 kts | 40° |
| 2026-05-08 14:53 | 51.10541 | 13.72809 | 1312 ft | 138 kts | 42° |
| 2026-05-08 14:54 | 51.11266 | 13.73798 | 1139 ft | 138 kts | 42° |
| 2026-05-08 14:54 | 51.11997 | 13.74815 | 925 ft | 140 kts | 42° |
| 2026-05-08 14:54 | 51.12713 | 13.75800 | 770 ft | 129 kts | 42° |
| 2026-05-08 14:54 | 51.13143 | 13.76397 | 751 ft | 111 kts | 41° |
| 2026-05-08 14:55 | 51.13705 | 13.77181 | 732 ft | 127 kts | 42° |
| 2026-05-08 14:55 | 51.14469 | 13.78244 | 1269 ft | 153 kts | 40° |
| 2026-05-08 14:55 | 51.15334 | 13.79332 | 2181 ft | 163 kts | 37° |
| 2026-05-08 14:55 | 51.16194 | 13.80558 | 2645 ft | 181 kts | 58° |
| 2026-05-08 14:56 | 51.16397 | 13.82650 | 2553 ft | 206 kts | 105° |
| 2026-05-08 14:56 | 51.15548 | 13.84475 | 2535 ft | 212 kts | 144° |
| 2026-05-08 14:56 | 51.14282 | 13.85660 | 2509 ft | 214 kts | 152° |
| 2026-05-08 14:56 | 51.12831 | 13.86212 | 2504 ft | 216 kts | 186° |
| 2026-05-08 14:57 | 51.11462 | 13.85279 | 2513 ft | 217 kts | 220° |
| 2026-05-08 14:57 | 51.10358 | 13.83674 | 2511 ft | 218 kts | 222° |
| 2026-05-08 14:57 | 51.09250 | 13.82072 | 2508 ft | 212 kts | 222° |
| 2026-05-08 14:57 | 51.08159 | 13.80510 | 2507 ft | 210 kts | 221° |
| 2026-05-08 14:58 | 51.07073 | 13.78965 | 2510 ft | 209 kts | 221° |
| 2026-05-08 14:58 | 51.05980 | 13.77416 | 2506 ft | 203 kts | 221° |
| 2026-05-08 14:58 | 51.04977 | 13.75877 | 2504 ft | 199 kts | 235° |
| 2026-05-08 14:58 | 51.04574 | 13.73902 | 2412 ft | 188 kts | 272° |
| 2026-05-08 14:59 | 51.04976 | 13.72019 | 2234 ft | 173 kts | 301° |
| 2026-05-08 14:59 | 51.06664 | 13.69928 | 2022 ft | 143 kts | 348° |
| 2026-05-08 14:59 | 51.07636 | 13.69816 | 1916 ft | 138 kts | 8° |
| 2026-05-08 15:00 | 51.08546 | 13.70248 | 1785 ft | 137 kts | 28° |
| 2026-05-08 15:00 | 51.09307 | 13.71129 | 1634 ft | 135 kts | 41° |
| 2026-05-08 15:00 | 51.10015 | 13.72103 | 1454 ft | 134 kts | 42° |
| 2026-05-08 15:00 | 51.10724 | 13.73085 | 1286 ft | 136 kts | 40° |
| 2026-05-08 15:01 | 51.11464 | 13.74073 | 1084 ft | 141 kts | 41° |
| 2026-05-08 15:01 | 51.12191 | 13.75079 | 884 ft | 138 kts | 41° |
| 2026-05-08 15:01 | 51.12896 | 13.76050 | 770 ft | 124 kts | 41° |
| 2026-05-08 15:01 | 51.13517 | 13.76888 | 741 ft | 126 kts | 40° |
| 2026-05-08 15:02 | 51.14280 | 13.77952 | 1217 ft | 155 kts | 42° |
| 2026-05-08 15:02 | 51.15083 | 13.79150 | 2070 ft | 160 kts | 49° |
| 2026-05-08 15:02 | 51.15424 | 13.80841 | 2434 ft | 175 kts | 99° |
| 2026-05-08 15:02 | 51.14796 | 13.82624 | 2527 ft | 199 kts | 133° |
| 2026-05-08 15:03 | 51.13607 | 13.83896 | 2497 ft | 212 kts | 157° |
| 2026-05-08 15:03 | 51.12150 | 13.84334 | 2508 ft | 216 kts | 181° |
| 2026-05-08 15:03 | 51.10696 | 13.83788 | 2509 ft | 217 kts | 206° |
| 2026-05-08 15:03 | 51.09484 | 13.82372 | 2526 ft | 217 kts | 222° |
| 2026-05-08 15:04 | 51.08367 | 13.80780 | 2510 ft | 214 kts | 221° |
| 2026-05-08 15:04 | 51.07268 | 13.79223 | 2506 ft | 211 kts | 221° |
| 2026-05-08 15:04 | 51.06174 | 13.77677 | 2512 ft | 209 kts | 221° |
| 2026-05-08 15:04 | 51.05083 | 13.76140 | 2511 ft | 210 kts | 221° |
| 2026-05-08 15:05 | 51.03991 | 13.74602 | 2513 ft | 209 kts | 221° |
| 2026-05-08 15:05 | 51.02914 | 13.73083 | 2508 ft | 203 kts | 221° |
| 2026-05-08 15:05 | 51.01969 | 13.71476 | 2497 ft | 198 kts | 243° |
| 2026-05-08 15:05 | 51.01747 | 13.69386 | 2508 ft | 195 kts | 282° |
| 2026-05-08 15:06 | 51.02337 | 13.67493 | 2510 ft | 193 kts | 313° |
| 2026-05-08 15:06 | 51.03408 | 13.66257 | 2506 ft | 191 kts | 339° |
| 2026-05-08 15:06 | 51.04704 | 13.65935 | 2505 ft | 189 kts | 7° |
| 2026-05-08 15:06 | 51.05942 | 13.66578 | 2443 ft | 189 kts | 33° |
| 2026-05-08 15:07 | 51.06956 | 13.67895 | 2255 ft | 187 kts | 41° |
| 2026-05-08 15:07 | 51.07901 | 13.69196 | 2015 ft | 174 kts | 41° |
| 2026-05-08 15:07 | 51.08765 | 13.70382 | 1799 ft | 155 kts | 41° |
| 2026-05-08 15:07 | 51.09540 | 13.71446 | 1570 ft | 141 kts | 41° |
| 2026-05-08 15:08 | 51.10271 | 13.72457 | 1399 ft | 141 kts | 41° |
| 2026-05-08 15:08 | 51.10781 | 13.73168 | 1285 ft | 148 kts | 41° |
| 2026-05-08 15:08 | 51.11809 | 13.74561 | 990 ft | 145 kts | 41° |
| 2026-05-08 15:08 | 51.12564 | 13.75607 | 796 ft | 142 kts | 40° |
| 2026-05-08 15:09 | 51.13239 | 13.76528 | 747 ft | 114 kts | 41° |
| 2026-05-08 15:09 | 51.13914 | 13.77451 | 840 ft | 149 kts | 40° |
| 2026-05-08 15:09 | 51.14731 | 13.78600 | 1604 ft | 163 kts | 49° |
| 2026-05-08 15:09 | 51.15171 | 13.80305 | 2317 ft | 182 kts | 90° |
| 2026-05-08 15:10 | 51.14701 | 13.82272 | 2496 ft | 206 kts | 126° |
| 2026-05-08 15:10 | 51.13601 | 13.83781 | 2506 ft | 213 kts | 152° |
| 2026-05-08 15:10 | 51.12171 | 13.84377 | 2513 ft | 216 kts | 179° |
| 2026-05-08 15:10 | 51.10715 | 13.83871 | 2507 ft | 217 kts | 206° |
| 2026-05-08 15:11 | 51.09519 | 13.82423 | 2517 ft | 217 kts | 221° |
| 2026-05-08 15:11 | 51.08392 | 13.80820 | 2510 ft | 217 kts | 221° |
| 2026-05-08 15:11 | 51.07268 | 13.79231 | 2511 ft | 217 kts | 221° |
| 2026-05-08 15:11 | 51.06142 | 13.77643 | 2365 ft | 210 kts | 221° |
| 2026-05-08 15:12 | 51.05100 | 13.76150 | 2161 ft | 192 kts | 226° |
| 2026-05-08 15:12 | 51.04558 | 13.74365 | 1952 ft | 175 kts | 269° |
| 2026-05-08 15:12 | 51.04881 | 13.72685 | 1938 ft | 152 kts | 305° |
| 2026-05-08 15:12 | 51.05568 | 13.71481 | 1937 ft | 144 kts | 323° |
| 2026-05-08 15:13 | 51.06418 | 13.70708 | 1963 ft | 140 kts | 340° |
| 2026-05-08 15:13 | 51.07347 | 13.70376 | 1888 ft | 136 kts | 358° |
| 2026-05-08 15:13 | 51.08287 | 13.70491 | 1779 ft | 135 kts | 14° |
| 2026-05-08 15:13 | 51.09154 | 13.71029 | 1647 ft | 134 kts | 31° |
| 2026-05-08 15:14 | 51.09886 | 13.71934 | 1477 ft | 133 kts | 41° |
| 2026-05-08 15:14 | 51.10607 | 13.72905 | 1315 ft | 137 kts | 41° |
| 2026-05-08 15:14 | 51.11347 | 13.73922 | 1149 ft | 143 kts | 41° |
| 2026-05-08 15:14 | 51.12112 | 13.74987 | 926 ft | 148 kts | 40° |
| 2026-05-08 15:15 | 51.12878 | 13.76031 | 763 ft | 135 kts | 40° |
| 2026-05-08 15:15 | 51.13515 | 13.76916 | 741 ft | 113 kts | 41° |
| 2026-05-08 15:15 | 51.14169 | 13.77794 | 1300 ft | 124 kts | 41° |
| 2026-05-08 15:15 | 51.14825 | 13.78738 | 2138 ft | 132 kts | 46° |
| 2026-05-08 15:16 | 51.15155 | 13.80282 | 2477 ft | 176 kts | 96° |
| 2026-05-08 15:16 | 51.14529 | 13.82241 | 2503 ft | 220 kts | 135° |
| 2026-05-08 15:16 | 51.13213 | 13.83429 | 2470 ft | 217 kts | 163° |
| 2026-05-08 15:16 | 51.11729 | 13.83707 | 2508 ft | 216 kts | 184° |
| 2026-05-08 15:17 | 51.10280 | 13.83142 | 2508 ft | 216 kts | 205° |
| 2026-05-08 15:17 | 51.09049 | 13.81778 | 2528 ft | 217 kts | 222° |
| 2026-05-08 15:17 | 51.07927 | 13.80172 | 2508 ft | 217 kts | 221° |
| 2026-05-08 15:17 | 51.06805 | 13.78581 | 2511 ft | 216 kts | 221° |
| 2026-05-08 15:18 | 51.05679 | 13.76988 | 2427 ft | 217 kts | 221° |
| 2026-05-08 15:18 | 51.04570 | 13.75417 | 2395 ft | 216 kts | 221° |
| 2026-05-08 15:18 | 51.03445 | 13.73830 | 2369 ft | 216 kts | 221° |
| 2026-05-08 15:18 | 51.02318 | 13.72247 | 2343 ft | 217 kts | 221° |
| 2026-05-08 15:19 | 51.01194 | 13.70656 | 2315 ft | 216 kts | 224° |
| 2026-05-08 15:19 | 51.00423 | 13.68651 | 2244 ft | 215 kts | 259° |
| 2026-05-08 15:19 | 51.00514 | 13.66303 | 2220 ft | 215 kts | 295° |
| 2026-05-08 15:19 | 51.01388 | 13.64475 | 2248 ft | 201 kts | 327° |
| 2026-05-08 15:20 | 51.02643 | 13.63698 | 2246 ft | 192 kts | 356° |
| 2026-05-08 15:20 | 51.03933 | 13.64002 | 2249 ft | 188 kts | 25° |
| 2026-05-08 15:20 | 51.04992 | 13.65207 | 2257 ft | 188 kts | 41° |
| 2026-05-08 15:20 | 51.05941 | 13.66511 | 2289 ft | 169 kts | 41° |
| 2026-05-08 15:21 | 51.06781 | 13.67662 | 2208 ft | 153 kts | 41° |
| 2026-05-08 15:21 | 51.07560 | 13.68731 | 2062 ft | 143 kts | 41° |
| 2026-05-08 15:21 | 51.08293 | 13.69735 | 1916 ft | 137 kts | 41° |
| 2026-05-08 15:21 | 51.09009 | 13.70718 | 1728 ft | 134 kts | 41° |
| 2026-05-08 15:22 | 51.09714 | 13.71686 | 1535 ft | 133 kts | 41° |
| 2026-05-08 15:22 | 51.10416 | 13.72650 | 1355 ft | 134 kts | 41° |
| 2026-05-08 15:22 | 51.11127 | 13.73630 | 1180 ft | 135 kts | 40° |
| 2026-05-08 15:22 | 51.11846 | 13.74611 | 979 ft | 137 kts | 41° |
| 2026-05-08 15:23 | 51.12568 | 13.75606 | 795 ft | 137 kts | 40° |
| 2026-05-08 15:23 | 51.13225 | 13.76513 | 745 ft | 112 kts | 40° |
| 2026-05-08 15:23 | 51.13849 | 13.77358 | 743 ft | 145 kts | 40° |
| 2026-05-08 15:23 | 51.14628 | 13.78470 | 1531 ft | 153 kts | 42° |
| 2026-05-08 15:24 | 51.15320 | 13.79792 | 2302 ft | 164 kts | 69° |
| 2026-05-08 15:24 | 51.15263 | 13.81722 | 2481 ft | 195 kts | 116° |
| 2026-05-08 15:24 | 51.14354 | 13.83402 | 2487 ft | 208 kts | 143° |
| 2026-05-08 15:24 | 51.13023 | 13.84336 | 2508 ft | 212 kts | 168° |
| 2026-05-08 15:25 | 51.11547 | 13.84338 | 2511 ft | 214 kts | 192° |
| 2026-05-08 15:25 | 51.10196 | 13.83367 | 2509 ft | 215 kts | 217° |
| 2026-05-08 15:25 | 51.09076 | 13.81792 | 2510 ft | 216 kts | 222° |
| 2026-05-08 15:25 | 51.07955 | 13.80198 | 2510 ft | 215 kts | 221° |
| 2026-05-08 15:26 | 51.06838 | 13.78617 | 2432 ft | 216 kts | 221° |
| 2026-05-08 15:26 | 51.05880 | 13.76812 | 2245 ft | 214 kts | 246° |
| 2026-05-08 15:26 | 51.05704 | 13.74508 | 2065 ft | 212 kts | 283° |
| 2026-05-08 15:26 | 51.06359 | 13.72504 | 1841 ft | 203 kts | 316° |
| 2026-05-08 15:27 | 51.07480 | 13.71381 | 1758 ft | 181 kts | 344° |
| 2026-05-08 15:27 | 51.08652 | 13.71199 | 1636 ft | 161 kts | 9° |
| 2026-05-08 15:27 | 51.09654 | 13.71725 | 1474 ft | 146 kts | 31° |
| 2026-05-08 15:27 | 51.10432 | 13.72679 | 1320 ft | 139 kts | 41° |
| 2026-05-08 15:28 | 51.11133 | 13.73651 | 1159 ft | 131 kts | 41° |
| 2026-05-08 15:28 | 51.11853 | 13.74626 | 990 ft | 140 kts | 42° |
| 2026-05-08 15:28 | 51.12593 | 13.75644 | 792 ft | 140 kts | 42° |
| 2026-05-08 15:28 | 51.13262 | 13.76574 | 746 ft | 114 kts | 42° |
| 2026-05-08 15:29 | 51.13750 | 13.77238 | 730 ft | 68 kts | 40° |
| 2026-05-08 15:29 | 51.13918 | 13.77483 | 723 ft | 6 kts | 94° |
| 2026-05-08 15:29 | 51.13885 | 13.77537 | 724 ft | 12 kts | 135° |
| 2026-05-08 15:29 | 51.13819 | 13.77659 | 721 ft | 16 kts | 129° |
| 2026-05-08 15:30 | 51.13736 | 13.77683 | 719 ft | 11 kts | 224° |
| 2026-05-08 15:30 | 51.13682 | 13.77616 | 722 ft | 9 kts | 220° |
| 2026-05-08 15:30 | 51.13597 | 13.77498 | 724 ft | 28 kts | 220° |
| 2026-05-08 15:30 | 51.13345 | 13.77158 | 731 ft | 59 kts | 220° |
| 2026-05-08 15:31 | 51.13046 | 13.76746 | 745 ft | 54 kts | 221° |
| 2026-05-08 15:31 | 51.12774 | 13.76368 | 749 ft | 50 kts | 221° |
| 2026-05-08 15:31 | 51.12537 | 13.76037 | 755 ft | 37 kts | 221° |
| 2026-05-08 15:31 | 51.12437 | 13.75996 | 763 ft | 9 kts | 153° |